createdAt,value
2023-05-04T00:02:17.635Z,13.10
2023-05-04T00:04:45.687Z,13.00
2023-05-04T00:07:14.362Z,13.00
2023-05-04T00:09:43.673Z,13.00
2023-05-04T00:12:11.814Z,13.00
2023-05-04T00:14:39.889Z,13.00
2023-05-04T00:17:08.069Z,12.90
2023-05-04T00:19:39.303Z,12.90
2023-05-04T00:22:07.304Z,12.90
2023-05-04T00:24:35.466Z,12.90
2023-05-04T00:27:05.003Z,12.80
2023-05-04T00:29:33.357Z,12.80
2023-05-04T00:32:01.553Z,12.80
2023-05-04T00:34:30.707Z,12.80
2023-05-04T00:36:59.320Z,12.70
2023-05-04T00:39:27.390Z,12.70
2023-05-04T00:41:55.864Z,12.70
2023-05-04T00:44:25.286Z,12.70
2023-05-04T00:46:53.850Z,12.70
2023-05-04T00:49:22.094Z,12.70
2023-05-04T00:51:50.746Z,12.60
2023-05-04T00:54:19.318Z,12.60
2023-05-04T00:56:48.241Z,12.60
2023-05-04T00:59:16.545Z,12.50
2023-05-04T01:01:45.906Z,12.40
2023-05-04T01:04:14.471Z,12.40
2023-05-04T01:06:48.789Z,12.40
2023-05-04T01:09:24.668Z,12.40
2023-05-04T01:11:59.329Z,12.40
2023-05-04T01:14:28.557Z,12.40
2023-05-04T01:16:59.601Z,12.40
2023-05-04T01:19:29.211Z,12.30
2023-05-04T01:21:58.600Z,12.30
2023-05-04T01:24:26.831Z,12.30
2023-05-04T01:27:00.203Z,12.30
2023-05-04T01:29:35.608Z,12.30
2023-05-04T01:32:04.005Z,12.20
2023-05-04T01:34:32.280Z,12.20
2023-05-04T01:37:03.409Z,12.10
2023-05-04T01:39:31.402Z,12.10
2023-05-04T01:41:59.865Z,12.10
2023-05-04T01:44:27.888Z,12.10
2023-05-04T01:46:55.895Z,12.10
2023-05-04T01:49:23.931Z,12.10
2023-05-04T01:51:51.934Z,12.10
2023-05-04T01:54:21.253Z,12.00
2023-05-04T01:56:49.286Z,12.00
2023-05-04T01:59:17.253Z,12.00
2023-05-04T02:01:45.269Z,12.00
2023-05-04T02:04:13.413Z,11.90
2023-05-04T02:06:41.492Z,11.90
2023-05-04T02:09:09.470Z,11.80
2023-05-04T02:11:38.925Z,11.80
2023-05-04T02:14:06.908Z,11.80
2023-05-04T02:16:34.956Z,11.80
2023-05-04T02:19:03.031Z,11.70
2023-05-04T02:21:31.075Z,11.70
2023-05-04T02:23:59.226Z,11.60
2023-05-04T02:26:27.241Z,11.60
2023-05-04T02:28:56.600Z,11.60
2023-05-04T02:31:25.047Z,11.60
2023-05-04T02:33:54.360Z,11.60
2023-05-04T02:36:22.356Z,11.70
2023-05-04T02:38:51.274Z,11.60
2023-05-04T02:41:19.273Z,11.50
2023-05-04T02:43:47.255Z,11.50
2023-05-04T02:46:16.785Z,11.50
2023-05-04T02:48:44.906Z,11.40
2023-05-04T02:51:12.950Z,11.40
2023-05-04T02:53:40.939Z,11.40
2023-05-04T02:56:08.977Z,11.30
2023-05-04T02:58:36.984Z,11.40
2023-05-04T03:01:05.065Z,11.30
2023-05-04T03:03:34.447Z,11.30
2023-05-04T03:06:02.450Z,11.30
2023-05-04T03:08:30.900Z,11.30
2023-05-04T03:10:58.877Z,11.30
2023-05-04T03:13:26.899Z,11.30
2023-05-04T03:15:54.883Z,11.30
2023-05-04T03:18:22.961Z,11.30
2023-05-04T03:20:52.840Z,11.30
2023-05-04T03:23:22.581Z,11.30
2023-05-04T03:25:50.612Z,11.30
2023-05-04T03:28:18.696Z,11.30
2023-05-04T03:30:46.668Z,11.30
2023-05-04T03:33:15.433Z,11.30
2023-05-04T03:35:43.989Z,11.20
2023-05-04T03:38:14.178Z,11.30
2023-05-04T03:40:44.735Z,11.20
2023-05-04T03:43:14.024Z,11.20
2023-05-04T03:45:42.196Z,11.10
2023-05-04T03:48:10.262Z,11.00
2023-05-04T03:50:38.302Z,11.00
2023-05-04T03:53:07.360Z,11.00
2023-05-04T03:55:36.990Z,11.00
2023-05-04T03:58:06.561Z,10.90
2023-05-04T04:00:35.119Z,10.80
2023-05-04T04:03:11.227Z,10.90
2023-05-04T04:05:39.706Z,10.90
2023-05-04T04:08:07.819Z,10.90
2023-05-04T04:10:37.331Z,10.90
2023-05-04T04:13:05.386Z,10.90
2023-05-04T04:15:33.462Z,11.00
2023-05-04T04:18:01.512Z,10.90
2023-05-04T04:20:29.493Z,10.90
2023-05-04T04:22:57.483Z,10.90
2023-05-04T04:25:25.483Z,10.90
2023-05-04T04:27:54.904Z,10.80
2023-05-04T04:30:22.870Z,10.80
2023-05-04T04:32:50.963Z,10.80
2023-05-04T04:35:18.974Z,10.80
2023-05-04T04:37:46.951Z,10.80
2023-05-04T04:40:15.452Z,10.80
2023-05-04T04:42:43.443Z,10.90
2023-05-04T04:45:14.741Z,10.90
2023-05-04T04:47:43.062Z,10.90
2023-05-04T04:50:11.830Z,11.00
2023-05-04T04:52:41.169Z,11.00
2023-05-04T04:55:10.003Z,11.00
2023-05-04T04:57:38.030Z,11.00
2023-05-04T05:00:09.940Z,11.00
2023-05-04T05:02:39.344Z,10.90
2023-05-04T05:05:08.681Z,10.90
2023-05-04T05:07:36.826Z,11.00
2023-05-04T05:10:05.609Z,11.10
2023-05-04T05:12:33.827Z,11.20
2023-05-04T05:15:04.259Z,11.20
2023-05-04T05:17:32.372Z,11.30
2023-05-04T05:20:01.661Z,11.30
2023-05-04T05:22:29.679Z,11.40
2023-05-04T05:24:57.797Z,11.40
2023-05-04T05:27:25.843Z,11.50
2023-05-04T05:29:53.806Z,11.60
2023-05-04T05:32:22.009Z,11.70
2023-05-04T05:34:50.373Z,11.80
2023-05-04T05:37:19.794Z,11.80
2023-05-04T05:39:47.760Z,11.80
2023-05-04T05:42:15.749Z,11.90
2023-05-04T05:44:43.773Z,11.90
2023-05-04T05:47:11.790Z,11.90
2023-05-04T05:49:39.780Z,11.90
2023-05-04T05:52:07.824Z,12.00
2023-05-04T05:54:37.705Z,12.10
2023-05-04T05:57:05.763Z,12.20
2023-05-04T05:59:33.720Z,12.30
2023-05-04T06:02:01.670Z,12.40
2023-05-04T06:04:29.783Z,12.50
2023-05-04T06:06:57.899Z,12.60
2023-05-04T06:09:25.837Z,12.60
2023-05-04T06:11:55.675Z,12.70
2023-05-04T06:14:23.763Z,12.70
2023-05-04T06:16:51.721Z,12.80
2023-05-04T06:19:19.695Z,12.80
2023-05-04T06:21:50.413Z,12.80
2023-05-04T06:24:18.423Z,12.90
2023-05-04T06:26:46.418Z,12.90
2023-05-04T06:29:15.846Z,12.90
2023-05-04T06:31:45.495Z,13.00
2023-05-04T06:34:14.872Z,13.10
2023-05-04T06:36:42.876Z,13.20
2023-05-04T06:39:10.904Z,13.30
2023-05-04T06:41:38.953Z,13.50
2023-05-04T06:44:07.368Z,13.60
2023-05-04T06:46:37.942Z,13.60
2023-05-04T06:49:05.984Z,13.80
2023-05-04T06:51:35.796Z,13.80
2023-05-04T06:54:03.812Z,14.10
2023-05-04T06:56:32.357Z,14.10
2023-05-04T06:59:00.470Z,14.20
2023-05-04T07:01:28.496Z,14.40
2023-05-04T07:03:58.859Z,14.40
2023-05-04T07:06:27.470Z,14.60
2023-05-04T07:08:55.547Z,14.70
2023-05-04T07:11:23.559Z,14.80
2023-05-04T07:13:51.620Z,14.80
2023-05-04T07:16:19.746Z,14.80
2023-05-04T07:18:47.800Z,15.00
2023-05-04T07:21:27.484Z,15.20
2023-05-04T07:23:57.159Z,15.40
2023-05-04T07:26:25.189Z,15.60
2023-05-04T07:28:53.211Z,15.70
2023-05-04T07:31:21.563Z,15.80
2023-05-04T07:33:51.194Z,15.90
2023-05-04T07:36:20.685Z,15.80
2023-05-04T07:38:49.010Z,15.70
2023-05-04T07:41:17.052Z,15.80
2023-05-04T07:43:45.074Z,15.80
2023-05-04T07:46:13.289Z,15.90
2023-05-04T07:48:41.299Z,16.10
2023-05-04T07:51:14.031Z,16.10
2023-05-04T07:53:43.877Z,16.10
2023-05-04T07:56:12.563Z,16.10
2023-05-04T07:58:41.277Z,16.20
2023-05-04T08:01:09.290Z,16.40
2023-05-04T08:03:37.367Z,16.50
2023-05-04T08:06:06.155Z,16.50
2023-05-04T08:08:34.168Z,16.40
2023-05-04T08:11:18.774Z,16.40
2023-05-04T08:13:48.712Z,16.40
2023-05-04T08:16:16.734Z,16.40
2023-05-04T08:18:44.756Z,16.40
2023-05-04T08:21:13.294Z,16.50
2023-05-04T08:23:42.161Z,16.60
2023-05-04T08:26:11.607Z,16.60
2023-05-04T08:28:41.083Z,16.70
2023-05-04T08:31:09.104Z,16.70
2023-05-04T08:33:37.111Z,16.80
2023-05-04T08:36:06.245Z,16.80
2023-05-04T08:38:34.699Z,16.80
2023-05-04T08:41:04.105Z,16.90
2023-05-04T08:43:36.037Z,16.90
2023-05-04T08:46:04.789Z,17.00
2023-05-04T08:48:33.700Z,17.10
2023-05-04T08:51:04.174Z,17.20
2023-05-04T08:53:33.728Z,17.30
2023-05-04T08:56:04.930Z,17.40
2023-05-04T08:58:37.978Z,17.40
2023-05-04T09:01:08.438Z,17.40
2023-05-04T09:03:37.335Z,17.40
2023-05-04T09:06:07.807Z,17.50
2023-05-04T09:08:36.235Z,17.60
2023-05-04T09:11:04.355Z,17.70
2023-05-04T09:13:34.056Z,17.70
2023-05-04T09:16:03.907Z,17.80
2023-05-04T09:18:39.871Z,17.90
2023-05-04T09:21:08.451Z,17.90
2023-05-04T09:23:47.328Z,18.00
2023-05-04T09:26:15.558Z,18.10
2023-05-04T09:28:45.093Z,18.20
2023-05-04T09:31:13.251Z,18.30
2023-05-04T09:33:41.480Z,18.30
2023-05-04T09:36:16.555Z,18.30
2023-05-04T09:38:45.261Z,18.30
2023-05-04T09:41:13.311Z,18.40
2023-05-04T09:43:42.286Z,18.50
2023-05-04T09:46:18.751Z,18.50
2023-05-04T09:48:54.004Z,18.50
2023-05-04T09:51:24.454Z,18.70
2023-05-04T09:53:53.870Z,18.80
2023-05-04T09:56:28.535Z,18.80
2023-05-04T09:58:58.727Z,18.90
2023-05-04T10:01:30.078Z,19.00
2023-05-04T10:03:58.496Z,19.00
2023-05-04T10:06:29.384Z,19.10
2023-05-04T10:08:59.617Z,19.20
2023-05-04T10:11:28.009Z,19.20
2023-05-04T10:13:57.113Z,19.20
2023-05-04T10:16:37.841Z,19.30
2023-05-04T10:19:22.509Z,19.40
2023-05-04T10:22:03.391Z,19.50
2023-05-04T10:24:57.109Z,19.60
2023-05-04T10:27:44.921Z,19.80
2023-05-04T10:30:15.892Z,19.80
2023-05-04T10:32:45.687Z,19.90
2023-05-04T10:35:14.713Z,19.90
2023-05-04T10:37:54.295Z,20.00
2023-05-04T10:40:37.220Z,19.90
2023-05-04T10:43:05.438Z,20.10
2023-05-04T10:45:37.764Z,20.20
2023-05-04T10:48:07.954Z,20.20
2023-05-04T10:50:46.009Z,20.10
2023-05-04T10:53:15.552Z,20.20
2023-05-04T10:55:45.094Z,20.20
2023-05-04T10:58:16.542Z,20.20
2023-05-04T11:00:46.569Z,20.30
2023-05-04T11:03:16.521Z,20.40
2023-05-04T11:05:45.704Z,20.50
2023-05-04T11:08:18.843Z,20.50
2023-05-04T11:10:48.421Z,20.50
2023-05-04T11:13:17.300Z,20.50
2023-05-04T11:15:46.721Z,20.60
2023-05-04T11:18:17.936Z,20.70
2023-05-04T11:20:47.100Z,20.70
2023-05-04T11:23:17.704Z,20.80
2023-05-04T11:25:45.791Z,20.70
2023-05-04T11:28:14.825Z,20.70
2023-05-04T11:30:44.554Z,20.80
2023-05-04T11:33:13.432Z,21.00
2023-05-04T11:35:44.194Z,21.00
2023-05-04T11:38:13.204Z,21.10
2023-05-04T11:40:48.170Z,21.10
2023-05-04T11:43:16.940Z,21.20
2023-05-04T11:45:47.239Z,21.20
2023-05-04T11:48:17.349Z,21.20
2023-05-04T11:50:48.993Z,21.30
2023-05-04T11:53:21.513Z,21.30
2023-05-04T11:55:49.838Z,21.50
2023-05-04T11:58:25.616Z,21.60
2023-05-04T12:00:57.290Z,21.60
2023-05-04T12:03:30.290Z,21.60
2023-05-04T12:06:09.671Z,21.50
2023-05-04T12:08:42.155Z,21.50
2023-05-04T12:11:17.834Z,21.60
2023-05-04T12:13:47.333Z,21.60
2023-05-04T12:16:16.789Z,21.70
2023-05-04T12:18:46.114Z,21.90
2023-05-04T12:21:18.502Z,21.90
2023-05-04T12:23:47.437Z,22.00
2023-05-04T12:26:18.139Z,21.90
2023-05-04T12:28:48.102Z,22.00
2023-05-04T12:31:16.437Z,22.10
2023-05-04T12:33:45.405Z,22.00
2023-05-04T12:36:14.908Z,22.10
2023-05-04T12:38:42.934Z,22.20
2023-05-04T12:41:11.595Z,22.20
2023-05-04T12:43:39.658Z,22.30
2023-05-04T12:46:07.932Z,22.30
2023-05-04T12:48:36.230Z,22.40
2023-05-04T12:51:05.018Z,22.40
2023-05-04T12:53:34.513Z,22.60
2023-05-04T12:56:03.603Z,22.70
2023-05-04T12:58:32.058Z,22.90
2023-05-04T13:01:00.149Z,23.10
2023-05-04T13:03:28.481Z,23.20
2023-05-04T13:05:57.731Z,23.30
2023-05-04T13:08:25.836Z,23.30
2023-05-04T13:10:55.198Z,23.30
2023-05-04T13:13:27.813Z,23.40
2023-05-04T13:15:56.200Z,23.50
2023-05-04T13:18:26.982Z,23.60
2023-05-04T13:20:55.252Z,23.50
2023-05-04T13:23:23.385Z,23.60
2023-05-04T13:25:51.910Z,23.80
2023-05-04T13:28:21.355Z,23.90
2023-05-04T13:30:49.620Z,23.90
2023-05-04T13:33:28.603Z,24.00
2023-05-04T13:35:58.525Z,24.20
2023-05-04T13:38:27.014Z,24.20
2023-05-04T13:40:55.484Z,24.20
2023-05-04T13:43:25.309Z,24.40
2023-05-04T13:45:53.374Z,24.50
2023-05-04T13:48:21.409Z,24.70
2023-05-04T13:50:49.388Z,24.80
2023-05-04T13:53:17.439Z,25.00
2023-05-04T13:55:45.489Z,25.10
2023-05-04T13:58:13.579Z,25.10
2023-05-04T14:00:43.189Z,25.20
2023-05-04T14:03:11.633Z,25.20
2023-05-04T14:05:39.973Z,25.20
2023-05-04T14:08:08.136Z,25.30
2023-05-04T14:10:37.605Z,25.50
2023-05-04T14:13:05.814Z,25.50
2023-05-04T14:15:33.992Z,25.40
2023-05-04T14:18:03.763Z,25.20
2023-05-04T14:20:32.425Z,25.00
2023-05-04T14:23:00.425Z,25.00
2023-05-04T14:25:28.517Z,25.00
2023-05-04T14:27:56.501Z,25.20
2023-05-04T14:30:24.679Z,25.20
2023-05-04T14:32:54.998Z,25.20
2023-05-04T14:35:24.856Z,25.10
2023-05-04T14:37:53.196Z,25.00
2023-05-04T14:40:21.422Z,24.90
2023-05-04T14:42:49.402Z,24.90
2023-05-04T14:45:17.847Z,25.00
2023-05-04T14:47:46.015Z,25.00
2023-05-04T14:50:14.374Z,25.20
2023-05-04T14:52:43.754Z,25.30
2023-05-04T14:55:12.030Z,25.40
2023-05-04T14:57:40.207Z,25.60
2023-05-04T15:00:09.856Z,26.10
2023-05-04T15:02:39.099Z,26.50
2023-05-04T15:05:09.771Z,26.70
2023-05-04T15:07:37.806Z,26.70
2023-05-04T15:10:10.359Z,26.60
2023-05-04T15:12:40.059Z,26.50
2023-05-04T15:15:09.032Z,26.70
2023-05-04T15:17:37.076Z,27.10
2023-05-04T15:20:05.837Z,27.40
2023-05-04T15:22:34.059Z,27.60
2023-05-04T15:25:02.626Z,27.50
2023-05-04T15:27:32.097Z,27.40
2023-05-04T15:30:00.221Z,27.40
2023-05-04T15:32:28.394Z,27.40
2023-05-04T15:35:04.708Z,27.20
2023-05-04T15:37:33.698Z,27.10
2023-05-04T15:40:02.719Z,26.80
2023-05-04T15:42:32.347Z,26.60
2023-05-04T15:45:00.436Z,26.50
2023-05-04T15:47:28.501Z,26.40
2023-05-04T15:49:56.491Z,26.10
2023-05-04T15:52:24.904Z,26.00
2023-05-04T15:54:52.978Z,25.90
2023-05-04T15:57:20.987Z,25.70
2023-05-04T15:59:50.486Z,25.40
2023-05-04T16:02:18.632Z,25.10
2023-05-04T16:04:46.636Z,25.00
2023-05-04T16:07:14.655Z,24.90
2023-05-04T16:09:42.724Z,24.80
2023-05-04T16:12:10.903Z,24.70
2023-05-04T16:14:38.904Z,24.60
2023-05-04T16:17:08.345Z,24.50
2023-05-04T16:19:36.722Z,24.50
2023-05-04T16:22:04.776Z,24.50
2023-05-04T16:24:32.888Z,24.40
2023-05-04T16:27:00.858Z,24.40
2023-05-04T16:29:28.992Z,24.40
2023-05-04T16:31:57.027Z,24.40
2023-05-04T16:34:26.386Z,24.30
2023-05-04T16:36:54.341Z,24.20
2023-05-04T16:39:22.306Z,24.20
2023-05-04T16:41:50.284Z,24.10
2023-05-04T16:44:18.252Z,24.10
2023-05-04T16:46:46.434Z,24.20
2023-05-04T16:49:15.003Z,24.10
2023-05-04T16:51:44.429Z,24.10
2023-05-04T16:54:12.515Z,24.00
2023-05-04T16:56:40.671Z,23.90
2023-05-04T16:59:08.711Z,23.70
2023-05-04T17:01:36.760Z,23.70
2023-05-04T17:04:04.942Z,23.70
2023-05-04T17:06:33.080Z,23.60
2023-05-04T17:09:03.419Z,23.50
2023-05-04T17:11:32.560Z,23.50
2023-05-04T17:14:01.190Z,23.50
2023-05-04T17:16:29.247Z,23.50
2023-05-04T17:18:57.268Z,23.40
2023-05-04T17:21:25.340Z,23.50
2023-05-04T17:23:53.455Z,23.50
2023-05-04T17:26:22.843Z,23.40
2023-05-04T17:28:50.910Z,23.40
2023-05-04T17:31:19.044Z,23.40
2023-05-04T17:33:47.243Z,23.40
2023-05-04T17:36:15.359Z,23.40
2023-05-04T17:38:43.341Z,23.40
2023-05-04T17:41:11.406Z,23.30
2023-05-04T17:43:40.838Z,23.30
2023-05-04T17:46:08.912Z,23.30
2023-05-04T17:48:37.283Z,23.20
2023-05-04T17:51:08.746Z,23.20
2023-05-04T17:53:36.936Z,23.10
2023-05-04T17:56:05.689Z,23.00
2023-05-04T17:58:33.753Z,23.00
2023-05-04T18:01:03.412Z,23.00
2023-05-04T18:03:31.638Z,22.90
2023-05-04T18:05:59.668Z,22.90
2023-05-04T18:08:27.703Z,22.90
2023-05-04T18:10:55.763Z,22.90
2023-05-04T18:13:23.830Z,22.90
2023-05-04T18:15:52.002Z,22.80
2023-05-04T18:18:21.389Z,22.70
2023-05-04T18:20:49.404Z,22.70
2023-05-04T18:23:17.441Z,22.70
2023-05-04T18:25:45.448Z,22.70
2023-05-04T18:28:13.439Z,22.70
2023-05-04T18:30:41.908Z,22.70
2023-05-04T18:33:09.975Z,22.70
2023-05-04T18:35:39.324Z,22.60
2023-05-04T18:38:07.338Z,22.50
2023-05-04T18:40:35.302Z,22.50
2023-05-04T18:43:03.326Z,22.50
2023-05-04T18:45:31.741Z,22.50
2023-05-04T18:47:59.840Z,22.50
2023-05-04T18:50:28.031Z,22.50
2023-05-04T18:52:57.409Z,22.40
2023-05-04T18:55:26.707Z,22.40
2023-05-04T18:57:54.839Z,22.30
2023-05-04T19:00:23.062Z,22.30
2023-05-04T19:02:51.770Z,22.30
2023-05-04T19:05:19.939Z,22.20
2023-05-04T19:07:47.955Z,22.00
2023-05-04T19:10:17.844Z,22.00
2023-05-04T19:12:45.853Z,22.00
2023-05-04T19:15:14.004Z,21.90
2023-05-04T19:17:42.051Z,21.80
2023-05-04T19:20:10.787Z,21.80
2023-05-04T19:22:38.810Z,21.70
2023-05-04T19:25:07.836Z,21.70
2023-05-04T19:27:37.396Z,21.70
2023-05-04T19:30:06.388Z,21.70
2023-05-04T19:32:34.936Z,21.60
2023-05-04T19:35:03.359Z,21.60
2023-05-04T19:37:31.467Z,21.50
2023-05-04T19:39:59.566Z,21.50
2023-05-04T19:42:28.321Z,21.40
2023-05-04T19:44:59.265Z,21.30
2023-05-04T19:47:29.187Z,21.30
2023-05-04T19:49:57.392Z,21.30
2023-05-04T19:52:25.433Z,21.30
2023-05-04T19:54:53.794Z,21.20
2023-05-04T19:57:22.060Z,21.20
2023-05-04T19:59:50.015Z,21.10
2023-05-04T20:02:19.506Z,21.00
2023-05-04T20:04:47.500Z,21.00
2023-05-04T20:07:15.518Z,20.90
2023-05-04T20:09:43.711Z,20.90
2023-05-04T20:12:12.415Z,20.90
2023-05-04T20:14:41.047Z,20.80
2023-05-04T20:17:09.171Z,20.80
2023-05-04T20:19:40.650Z,20.70
2023-05-04T20:22:08.895Z,20.60
2023-05-04T20:24:36.910Z,20.60
2023-05-04T20:27:05.359Z,20.50
2023-05-04T20:29:33.706Z,20.50
2023-05-04T20:32:02.886Z,20.50
2023-05-04T20:34:30.973Z,20.40
2023-05-04T20:37:00.349Z,20.40
2023-05-04T20:39:28.414Z,20.40
2023-05-04T20:41:56.392Z,20.30
2023-05-04T20:44:24.433Z,20.30
2023-05-04T20:46:52.534Z,20.20
2023-05-04T20:49:20.675Z,20.20
2023-05-04T20:51:48.689Z,20.20
2023-05-04T20:54:18.385Z,20.10
2023-05-04T20:56:46.352Z,20.10
2023-05-04T20:59:14.384Z,20.00
2023-05-04T21:01:42.398Z,20.00
2023-05-04T21:04:10.514Z,20.00
2023-05-04T21:06:38.524Z,19.90
2023-05-04T21:09:07.809Z,19.80
2023-05-04T21:11:37.164Z,19.80
2023-05-04T21:14:05.127Z,19.80
2023-05-04T21:16:33.107Z,19.70
2023-05-04T21:19:01.206Z,19.70
2023-05-04T21:21:29.247Z,19.70
2023-05-04T21:23:57.256Z,19.70
2023-05-04T21:26:25.248Z,19.70
2023-05-04T21:28:54.598Z,19.70
2023-05-04T21:31:22.688Z,19.70
2023-05-04T21:33:51.927Z,19.60
2023-05-04T21:36:20.060Z,19.60
2023-05-04T21:38:48.055Z,19.60
2023-05-04T21:41:17.418Z,19.60
2023-05-04T21:43:45.402Z,19.60
2023-05-04T21:46:14.728Z,19.60
2023-05-04T21:48:42.864Z,19.60
2023-05-04T21:51:10.873Z,19.50
2023-05-04T21:53:38.823Z,19.50
2023-05-04T21:56:10.508Z,19.50
2023-05-04T21:58:39.719Z,19.50
2023-05-04T22:01:08.027Z,19.50
2023-05-04T22:03:37.698Z,19.50
2023-05-04T22:06:06.523Z,19.50
2023-05-04T22:08:35.656Z,19.40
2023-05-04T22:11:03.802Z,19.40
2023-05-04T22:13:31.783Z,19.40
2023-05-04T22:15:59.775Z,19.40
2023-05-04T22:18:27.741Z,19.40
2023-05-04T22:20:57.242Z,19.30
2023-05-04T22:23:25.183Z,19.30
2023-05-04T22:25:53.225Z,19.30
2023-05-04T22:28:21.276Z,19.20
2023-05-04T22:30:49.246Z,19.20
2023-05-04T22:33:17.306Z,19.20
2023-05-04T22:35:45.337Z,19.20
2023-05-04T22:38:15.123Z,19.20
2023-05-04T22:40:43.810Z,19.20
2023-05-04T22:43:11.843Z,19.20
2023-05-04T22:45:40.178Z,19.20
2023-05-04T22:48:08.616Z,19.20
2023-05-04T22:50:36.587Z,19.20
2023-05-04T22:53:04.686Z,19.20
2023-05-04T22:55:34.236Z,19.10
2023-05-04T22:58:02.224Z,19.10
2023-05-04T23:00:30.237Z,19.10
2023-05-04T23:02:58.295Z,19.00
2023-05-04T23:05:26.781Z,19.00
2023-05-04T23:07:54.791Z,18.90
2023-05-04T23:10:23.017Z,18.90
2023-05-04T23:12:52.442Z,18.90
2023-05-04T23:15:20.663Z,18.90
2023-05-04T23:17:48.676Z,18.90
2023-05-04T23:20:16.805Z,18.80
2023-05-04T23:22:44.757Z,18.80
2023-05-04T23:25:12.877Z,18.80
2023-05-04T23:27:40.890Z,18.70
2023-05-04T23:30:10.949Z,18.70
2023-05-04T23:32:39.045Z,18.70
2023-05-04T23:35:08.088Z,18.70
2023-05-04T23:37:36.141Z,18.60
2023-05-04T23:40:04.578Z,18.50
2023-05-04T23:42:32.548Z,18.50
2023-05-04T23:45:00.581Z,18.60
2023-05-04T23:47:29.944Z,18.60
2023-05-04T23:49:57.941Z,18.60
2023-05-04T23:52:25.976Z,18.70
2023-05-04T23:54:54.483Z,18.70
2023-05-04T23:57:22.433Z,18.70
2023-05-04T23:59:50.433Z,18.70
